createdAt,value
2017-09-17T00:00:16.300Z,9.3
2017-09-17T00:01:26.738Z,9.35
2017-09-17T00:02:36.877Z,9.22
2017-09-17T00:03:47.654Z,9.29
2017-09-17T00:04:58.104Z,9.27
2017-09-17T00:06:08.395Z,9.27
2017-09-17T00:07:19.072Z,9.27
2017-09-17T00:08:29.507Z,9.29
2017-09-17T00:09:40.260Z,9.25
2017-09-17T00:10:50.694Z,9.22
2017-09-17T00:12:00.851Z,9.16
2017-09-17T00:13:11.288Z,9.15
2017-09-17T00:14:22.125Z,9.08
2017-09-17T00:15:32.834Z,9.11
2017-09-17T00:16:43.270Z,9.17
2017-09-17T00:17:53.260Z,9.16
2017-09-17T00:19:03.098Z,9.16
2017-09-17T00:20:13.534Z,9.17
2017-09-17T00:21:24.020Z,9.19
2017-09-17T00:22:34.483Z,9.12
2017-09-17T00:23:45.100Z,9.15
2017-09-17T00:24:55.531Z,9.08
2017-09-17T00:26:06.017Z,9.15
2017-09-17T00:27:16.735Z,9.12
2017-09-17T00:28:27.178Z,9.05
2017-09-17T00:29:37.688Z,9.04
2017-09-17T00:30:48.130Z,9.04
2017-09-17T00:31:58.262Z,8.95
2017-09-17T00:33:08.971Z,9.02
2017-09-17T00:34:19.088Z,8.97
2017-09-17T00:35:29.547Z,9
2017-09-17T00:36:39.980Z,8.92
2017-09-17T00:37:50.427Z,8.92
2017-09-17T00:39:00.807Z,8.93
2017-09-17T00:40:11.237Z,8.93
2017-09-17T00:41:21.246Z,8.77
2017-09-17T00:42:31.226Z,8.79
2017-09-17T00:43:41.807Z,8.8
2017-09-17T00:44:52.503Z,8.75
2017-09-17T00:46:03.177Z,8.84
2017-09-17T00:47:13.604Z,8.75
2017-09-17T00:48:24.122Z,8.89
2017-09-17T00:49:34.323Z,8.82
2017-09-17T00:50:45.072Z,8.84
2017-09-17T00:51:55.275Z,8.95
2017-09-17T00:53:06.783Z,8.95
2017-09-17T00:54:16.586Z,8.97
2017-09-17T00:55:27.025Z,8.97
2017-09-17T00:56:37.440Z,9
2017-09-17T00:57:47.596Z,8.9
2017-09-17T00:58:57.720Z,8.9
2017-09-17T01:00:08.411Z,8.86
2017-09-17T01:01:18.925Z,9.02
2017-09-17T01:02:29.597Z,8.97
2017-09-17T01:03:40.030Z,8.92
2017-09-17T01:04:50.522Z,8.98
2017-09-17T01:06:00.940Z,8.97
2017-09-17T01:07:10.919Z,8.93
2017-09-17T01:08:21.650Z,8.93
2017-09-17T01:09:32.084Z,8.92
2017-09-17T01:10:42.529Z,8.8
2017-09-17T01:11:52.964Z,8.79
2017-09-17T01:13:03.112Z,8.71
2017-09-17T01:14:13.798Z,8.75
2017-09-17T01:15:24.295Z,8.7
2017-09-17T01:16:34.872Z,8.71
2017-09-17T01:17:45.286Z,8.66
2017-09-17T01:18:55.449Z,8.6
2017-09-17T01:20:06.283Z,8.6
2017-09-17T01:21:16.700Z,8.6
2017-09-17T01:22:28.126Z,8.63
2017-09-17T01:23:38.573Z,8.53
2017-09-17T01:24:49.007Z,8.63
2017-09-17T01:25:59.454Z,8.57
2017-09-17T01:27:09.918Z,8.46
2017-09-17T01:28:20.488Z,8.6
2017-09-17T01:29:30.946Z,8.52
2017-09-17T01:30:41.409Z,8.52
2017-09-17T01:31:52.079Z,8.5
2017-09-17T01:33:02.515Z,8.55
2017-09-17T01:34:12.973Z,8.48
2017-09-17T01:35:23.434Z,8.57
2017-09-17T01:36:33.951Z,8.45
2017-09-17T01:37:44.350Z,8.49
2017-09-17T01:38:54.807Z,8.46
2017-09-17T01:40:05.246Z,8.43
2017-09-17T01:41:15.709Z,8.43
2017-09-17T01:42:26.363Z,8.45
2017-09-17T01:43:37.041Z,8.42
2017-09-17T01:44:47.635Z,8.3
2017-09-17T01:45:58.129Z,8.32
2017-09-17T01:47:08.269Z,8.27
2017-09-17T01:48:18.771Z,8.27
2017-09-17T01:49:29.477Z,8.17
2017-09-17T01:50:40.314Z,8.2
2017-09-17T01:51:50.729Z,8.17
2017-09-17T01:53:01.189Z,8.12
2017-09-17T01:54:11.691Z,8.16
2017-09-17T01:55:22.062Z,8.21
2017-09-17T01:56:32.188Z,8.23
2017-09-17T01:57:42.677Z,8.17
2017-09-17T01:58:53.128Z,8.21
2017-09-17T02:00:03.608Z,8.16
2017-09-17T02:01:14.332Z,8.15
2017-09-17T02:02:24.757Z,8.12
2017-09-17T02:03:35.076Z,8.17
2017-09-17T02:04:45.650Z,8.13
2017-09-17T02:05:55.790Z,8.16
2017-09-17T02:07:06.155Z,8.1
2017-09-17T02:08:16.975Z,8.16
2017-09-17T02:09:27.218Z,8.1
2017-09-17T02:10:37.694Z,8.06
2017-09-17T02:11:48.276Z,8.02
2017-09-17T02:12:58.997Z,8.05
2017-09-17T02:14:09.453Z,8.05
2017-09-17T02:15:19.925Z,7.99
2017-09-17T02:16:30.366Z,8.05
2017-09-17T02:17:40.939Z,7.99
2017-09-17T02:18:51.608Z,7.98
2017-09-17T02:20:02.135Z,8.07
2017-09-17T02:21:12.606Z,8.13
2017-09-17T02:22:23.069Z,8.09
2017-09-17T02:23:33.492Z,8.09
2017-09-17T02:24:44.408Z,8.12
2017-09-17T02:25:54.815Z,8.17
2017-09-17T02:27:05.246Z,8.16
2017-09-17T02:28:15.343Z,8.12
2017-09-17T02:29:25.970Z,8.17
2017-09-17T02:30:36.655Z,8.17
2017-09-17T02:31:47.081Z,8.15
2017-09-17T02:32:57.502Z,8.27
2017-09-17T02:34:07.990Z,8.3
2017-09-17T02:35:18.508Z,8.15
2017-09-17T02:36:29.423Z,8.23
2017-09-17T02:37:39.839Z,8.15
2017-09-17T02:38:50.363Z,8.21
2017-09-17T02:40:00.787Z,8.16
2017-09-17T02:41:10.807Z,8.1
2017-09-17T02:42:21.557Z,8.12
2017-09-17T02:43:31.987Z,8.13
2017-09-17T02:44:42.408Z,8.12
2017-09-17T02:45:52.842Z,8.15
2017-09-17T02:47:03.782Z,8.15
2017-09-17T02:48:14.511Z,8.16
2017-09-17T02:49:24.941Z,8.13
2017-09-17T02:50:35.390Z,8.12
2017-09-17T02:51:45.828Z,8.16
2017-09-17T02:52:55.946Z,8.17
2017-09-17T02:54:06.631Z,8.13
2017-09-17T02:55:17.100Z,8.03
2017-09-17T02:56:27.544Z,8.1
2017-09-17T02:57:38.045Z,8.06
2017-09-17T02:58:48.483Z,8.05
2017-09-17T02:59:59.145Z,7.92
2017-09-17T03:01:09.643Z,7.88
2017-09-17T03:02:19.893Z,7.92
2017-09-17T03:03:30.349Z,7.91
2017-09-17T03:04:40.786Z,7.92
2017-09-17T03:05:51.094Z,7.95
2017-09-17T03:07:01.532Z,7.97
2017-09-17T03:08:11.978Z,7.9
2017-09-17T03:09:22.403Z,7.92
2017-09-17T03:10:33.060Z,7.85
2017-09-17T03:11:43.807Z,7.87
2017-09-17T03:12:54.231Z,7.9
2017-09-17T03:14:04.703Z,7.8
2017-09-17T03:15:15.550Z,7.85
2017-09-17T03:16:25.962Z,7.79
2017-09-17T03:17:36.788Z,7.77
2017-09-17T03:18:47.208Z,7.8
2017-09-17T03:19:57.628Z,7.8
2017-09-17T03:21:08.131Z,7.79
2017-09-17T03:22:18.656Z,7.8
2017-09-17T03:23:29.356Z,7.76
2017-09-17T03:24:39.778Z,7.76
2017-09-17T03:25:49.892Z,7.76
2017-09-17T03:27:00.312Z,7.61
2017-09-17T03:28:10.771Z,7.64
2017-09-17T03:29:21.442Z,7.62
2017-09-17T03:30:31.579Z,7.54
2017-09-17T03:31:42.086Z,7.58
2017-09-17T03:32:52.587Z,7.62
2017-09-17T03:34:02.752Z,7.54
2017-09-17T03:35:13.425Z,7.55
2017-09-17T03:36:23.877Z,7.56
2017-09-17T03:37:33.860Z,7.54
2017-09-17T03:38:44.076Z,7.56
2017-09-17T03:39:54.199Z,7.58
2017-09-17T03:41:04.949Z,7.54
2017-09-17T03:42:15.504Z,7.55
2017-09-17T03:43:25.926Z,7.54
2017-09-17T03:44:36.433Z,7.56
2017-09-17T03:45:46.858Z,7.54
2017-09-17T03:46:57.287Z,7.49
2017-09-17T03:48:07.433Z,7.49
2017-09-17T03:49:17.918Z,7.54
2017-09-17T03:50:28.327Z,7.54
2017-09-17T03:51:38.981Z,7.54
2017-09-17T03:52:49.674Z,7.52
2017-09-17T03:54:00.201Z,7.51
2017-09-17T03:55:10.764Z,7.54
2017-09-17T03:56:21.191Z,7.58
2017-09-17T03:57:31.628Z,7.55
2017-09-17T03:58:42.340Z,7.59
2017-09-17T03:59:52.789Z,7.58
2017-09-17T04:01:03.425Z,7.58
2017-09-17T04:02:13.864Z,7.51
2017-09-17T04:03:24.411Z,7.49
2017-09-17T04:04:36.054Z,7.58
2017-09-17T04:05:46.605Z,7.54
2017-09-17T04:06:57.010Z,7.59
2017-09-17T04:08:07.484Z,7.47
2017-09-17T04:09:17.437Z,7.48
2017-09-17T04:10:28.103Z,7.47
2017-09-17T04:11:38.789Z,7.52
2017-09-17T04:12:49.201Z,7.33
2017-09-17T04:13:59.673Z,7.44
2017-09-17T04:15:10.111Z,7.44
2017-09-17T04:16:20.816Z,7.36
2017-09-17T04:17:31.346Z,7.37
2017-09-17T04:18:41.463Z,7.33
2017-09-17T04:19:51.903Z,7.33
2017-09-17T04:21:02.438Z,7.28
2017-09-17T04:22:13.114Z,7.31
2017-09-17T04:23:23.113Z,7.31
2017-09-17T04:24:33.093Z,7.33
2017-09-17T04:25:43.537Z,7.37
2017-09-17T04:26:53.956Z,7.4
2017-09-17T04:28:04.728Z,7.31
2017-09-17T04:29:15.143Z,7.29
2017-09-17T04:30:25.556Z,7.24
2017-09-17T04:31:35.597Z,7.24
2017-09-17T04:32:46.033Z,7.24
2017-09-17T04:33:57.677Z,7.24
2017-09-17T04:35:07.897Z,7.26
2017-09-17T04:36:18.714Z,7.2
2017-09-17T04:37:29.131Z,7.13
2017-09-17T04:38:39.588Z,7.14
2017-09-17T04:39:50.306Z,7.15
2017-09-17T04:41:00.763Z,7.03
2017-09-17T04:42:11.183Z,7.2
2017-09-17T04:43:21.690Z,7.13
2017-09-17T04:44:32.136Z,7.13
2017-09-17T04:45:42.961Z,7.1
2017-09-17T04:46:53.379Z,7.05
2017-09-17T04:48:03.821Z,7.05
2017-09-17T04:49:14.329Z,6.99
2017-09-17T04:50:24.767Z,7.06
2017-09-17T04:51:35.193Z,7.02
2017-09-17T04:52:45.628Z,7.02
2017-09-17T04:53:55.608Z,6.95
2017-09-17T04:55:06.030Z,7
2017-09-17T04:56:16.500Z,6.99
2017-09-17T04:57:27.325Z,7.02
2017-09-17T04:58:37.768Z,6.99
2017-09-17T04:59:48.196Z,7.05
2017-09-17T05:00:58.631Z,7.05
2017-09-17T05:02:09.085Z,7.03
2017-09-17T05:03:19.780Z,7.03
2017-09-17T05:04:30.246Z,7.02
2017-09-17T05:05:40.345Z,7.14
2017-09-17T05:06:50.806Z,7.08
2017-09-17T05:08:01.219Z,7.06
2017-09-17T05:09:11.898Z,6.99
2017-09-17T05:10:22.459Z,7
2017-09-17T05:11:32.914Z,6.97
2017-09-17T05:12:43.365Z,7.02
2017-09-17T05:13:53.473Z,7.03
2017-09-17T05:15:03.847Z,7.05
2017-09-17T05:16:14.302Z,7.03
2017-09-17T05:17:24.517Z,6.97
2017-09-17T05:18:34.997Z,6.9
2017-09-17T05:19:45.442Z,6.92
2017-09-17T05:20:55.679Z,6.92
2017-09-17T05:22:05.907Z,6.95
2017-09-17T05:23:16.293Z,6.97
2017-09-17T05:24:26.732Z,6.99
2017-09-17T05:25:37.176Z,6.95
2017-09-17T05:26:48.082Z,7.03
2017-09-17T05:27:58.516Z,7.03
2017-09-17T05:29:08.950Z,7.03
2017-09-17T05:30:19.354Z,7.13
2017-09-17T05:31:29.485Z,7.14
2017-09-17T05:32:40.148Z,7.17
2017-09-17T05:33:50.635Z,7.11
2017-09-17T05:35:01.110Z,7.13
2017-09-17T05:36:11.539Z,7.2
2017-09-17T05:37:22.207Z,7.28
2017-09-17T05:38:32.920Z,7.24
2017-09-17T05:39:42.935Z,7.31
2017-09-17T05:40:53.364Z,7.29
2017-09-17T05:42:03.525Z,7.4
2017-09-17T05:43:13.953Z,7.39
2017-09-17T05:44:24.775Z,7.41
2017-09-17T05:45:35.221Z,7.54
2017-09-17T05:46:45.675Z,7.51
2017-09-17T05:47:55.656Z,7.66
2017-09-17T05:49:05.804Z,7.7
2017-09-17T05:50:16.167Z,7.7
2017-09-17T05:51:26.650Z,7.8
2017-09-17T05:52:37.122Z,7.8
2017-09-17T05:53:47.624Z,7.84
2017-09-17T05:54:58.075Z,7.99
2017-09-17T05:56:08.459Z,7.95
2017-09-17T05:57:18.881Z,8.03
2017-09-17T05:58:29.314Z,8.12
2017-09-17T05:59:39.825Z,8.2
2017-09-17T06:00:50.263Z,8.31
2017-09-17T06:02:01.023Z,8.34
2017-09-17T06:03:11.522Z,8.42
2017-09-17T06:04:21.953Z,8.49
2017-09-17T06:05:32.385Z,8.49
2017-09-17T06:06:42.962Z,8.66
2017-09-17T06:07:53.324Z,8.64
2017-09-17T06:09:03.742Z,8.66
2017-09-17T06:10:14.228Z,8.77
2017-09-17T06:11:24.654Z,8.8
2017-09-17T06:12:35.101Z,8.79
2017-09-17T06:13:45.782Z,8.9
2017-09-17T06:14:56.234Z,8.84
2017-09-17T06:16:06.676Z,8.87
2017-09-17T06:17:16.802Z,8.9
2017-09-17T06:18:27.243Z,8.93
2017-09-17T06:19:37.923Z,8.9
2017-09-17T06:20:48.448Z,8.92
2017-09-17T06:21:58.869Z,8.97
2017-09-17T06:23:09.375Z,8.9
2017-09-17T06:24:19.707Z,8.93
2017-09-17T06:25:30.421Z,8.92
2017-09-17T06:26:40.856Z,8.92
2017-09-17T06:27:50.971Z,8.93
2017-09-17T06:29:01.506Z,8.92
2017-09-17T06:30:11.936Z,9.05
2017-09-17T06:31:22.610Z,8.87
2017-09-17T06:32:33.127Z,9.02
2017-09-17T06:33:43.561Z,9.01
2017-09-17T06:34:53.996Z,9.12
2017-09-17T06:36:04.674Z,9.07
2017-09-17T06:37:15.360Z,9.19
2017-09-17T06:38:25.513Z,9.19
2017-09-17T06:39:35.973Z,9.19
2017-09-17T06:40:46.489Z,9.23
2017-09-17T06:41:56.929Z,9.27
2017-09-17T06:43:07.748Z,9.23
2017-09-17T06:44:18.186Z,9.22
2017-09-17T06:45:28.656Z,9.33
2017-09-17T06:46:39.128Z,9.3
2017-09-17T06:47:49.588Z,9.27
2017-09-17T06:49:00.290Z,9.27
2017-09-17T06:50:10.921Z,9.34
2017-09-17T06:51:21.352Z,9.35
2017-09-17T06:52:31.811Z,9.44
2017-09-17T06:53:42.311Z,9.4
2017-09-17T06:54:53.264Z,9.55
2017-09-17T06:56:03.731Z,9.52
2017-09-17T06:57:14.194Z,9.56
2017-09-17T06:58:24.659Z,9.62
2017-09-17T06:59:35.144Z,9.7
2017-09-17T07:00:45.960Z,9.67
2017-09-17T07:01:56.429Z,9.73
2017-09-17T07:03:07.023Z,9.71
2017-09-17T07:04:17.569Z,9.77
2017-09-17T07:05:27.999Z,9.7
2017-09-17T07:06:38.736Z,9.7
2017-09-17T07:07:49.161Z,9.66
2017-09-17T07:08:59.425Z,9.63
2017-09-17T07:10:09.626Z,9.65
2017-09-17T07:11:19.782Z,9.63
2017-09-17T07:12:30.507Z,9.73
2017-09-17T07:13:40.628Z,9.81
2017-09-17T07:14:51.077Z,9.83
2017-09-17T07:16:01.129Z,10.02
2017-09-17T07:17:11.570Z,10.11
2017-09-17T07:18:22.310Z,10.29
2017-09-17T07:19:32.740Z,10.3
2017-09-17T07:20:43.197Z,10.4
2017-09-17T07:21:53.630Z,10.52
2017-09-17T07:23:04.122Z,10.59
2017-09-17T07:24:14.590Z,10.87
2017-09-17T07:25:25.079Z,10.8
2017-09-17T07:26:35.717Z,10.95
2017-09-17T07:27:46.160Z,11.08
2017-09-17T07:28:56.626Z,11.16
2017-09-17T07:30:07.127Z,11.42
2017-09-17T07:31:17.597Z,11.49
2017-09-17T07:32:28.025Z,11.64
2017-09-17T07:33:38.474Z,11.74
2017-09-17T07:34:49.064Z,11.97
2017-09-17T07:35:59.502Z,12.13
2017-09-17T07:37:09.964Z,12.2
2017-09-17T07:38:20.400Z,12.38
2017-09-17T07:39:30.910Z,12.55
2017-09-17T07:40:41.345Z,12.8
2017-09-17T07:41:51.547Z,13.06
2017-09-17T07:43:01.988Z,13.31
2017-09-17T07:44:12.451Z,13.55
2017-09-17T07:45:22.923Z,13.88
2017-09-17T07:46:33.367Z,14.14
2017-09-17T07:47:43.821Z,14.34
2017-09-17T07:48:53.940Z,14.62
2017-09-17T07:50:04.562Z,14.87
2017-09-17T07:51:15.020Z,14.93
2017-09-17T07:52:25.195Z,15.02
2017-09-17T07:53:35.729Z,15.02
2017-09-17T07:54:46.380Z,14.96
2017-09-17T07:55:56.926Z,14.85
2017-09-17T07:57:07.359Z,14.72
2017-09-17T07:58:17.804Z,14.66
2017-09-17T07:59:28.232Z,14.43
2017-09-17T08:00:38.914Z,14.22
2017-09-17T08:01:49.412Z,14.19
2017-09-17T08:02:59.879Z,13.96
2017-09-17T08:04:09.895Z,14
2017-09-17T08:05:20.045Z,13.82
2017-09-17T08:06:30.573Z,13.73
2017-09-17T08:07:41.104Z,13.61
2017-09-17T08:08:51.571Z,13.61
2017-09-17T08:10:02.053Z,13.51
2017-09-17T08:11:12.506Z,13.51
2017-09-17T08:12:22.648Z,13.61
2017-09-17T08:13:33.224Z,13.56
2017-09-17T08:14:43.664Z,13.52
2017-09-17T08:15:54.095Z,13.38
2017-09-17T08:17:04.533Z,13.4
2017-09-17T08:18:14.976Z,13.46
2017-09-17T08:19:25.413Z,13.45
2017-09-17T08:20:35.849Z,13.46
2017-09-17T08:21:45.975Z,13.49
2017-09-17T08:22:56.488Z,13.41
2017-09-17T08:24:06.652Z,13.4
2017-09-17T08:25:17.410Z,13.4
2017-09-17T08:26:28.082Z,13.46
2017-09-17T08:27:38.516Z,13.48
2017-09-17T08:28:48.518Z,13.59
2017-09-17T08:29:59.013Z,13.56
2017-09-17T08:31:09.513Z,13.59
2017-09-17T08:32:20.005Z,13.64
2017-09-17T08:33:30.477Z,13.55
2017-09-17T08:34:41.450Z,13.55
2017-09-17T08:35:51.914Z,13.61
2017-09-17T08:37:02.413Z,13.88
2017-09-17T08:38:13.333Z,14.09
2017-09-17T08:39:23.754Z,14.16
2017-09-17T08:40:34.322Z,14.34
2017-09-17T08:41:44.787Z,14.58
2017-09-17T08:42:55.341Z,14.96
2017-09-17T08:44:05.823Z,15.21
2017-09-17T08:45:16.313Z,15.63
2017-09-17T08:46:26.980Z,16.43
2017-09-17T08:47:37.476Z,16.75
2017-09-17T08:48:47.650Z,17.45
2017-09-17T08:49:58.104Z,17.6
2017-09-17T08:51:08.594Z,17.75
2017-09-17T08:52:18.598Z,17.85
2017-09-17T08:53:29.039Z,18.17
2017-09-17T08:54:39.502Z,19.06
2017-09-17T08:55:49.970Z,19.83
2017-09-17T08:56:59.804Z,20.51
2017-09-17T08:58:10.306Z,21.3
2017-09-17T08:59:21.867Z,21.9
2017-09-17T09:00:32.338Z,22.49
2017-09-17T09:01:43.429Z,23.13
2017-09-17T09:02:53.899Z,23.73
2017-09-17T09:04:04.356Z,23.92
2017-09-17T09:05:14.903Z,24.13
2017-09-17T09:06:25.393Z,24.54
2017-09-17T09:07:35.877Z,24.65
2017-09-17T09:08:46.446Z,24.84
2017-09-17T09:09:56.923Z,24.9
2017-09-17T09:11:07.468Z,25.05
2017-09-17T09:12:17.924Z,25.24
2017-09-17T09:13:28.404Z,25.32
2017-09-17T09:14:38.659Z,25.54
2017-09-17T09:15:49.313Z,25.74
2017-09-17T09:16:59.786Z,26
2017-09-17T09:18:10.310Z,26.11
2017-09-17T09:19:20.798Z,25.96
2017-09-17T09:20:31.362Z,25.88
2017-09-17T09:21:41.909Z,25.92
2017-09-17T09:22:51.935Z,26.07
2017-09-17T09:24:02.447Z,26.11
2017-09-17T09:25:14.093Z,26.27
2017-09-17T09:26:24.643Z,26.41
2017-09-17T09:27:35.128Z,26.64
2017-09-17T09:28:45.298Z,26.58
2017-09-17T09:29:55.756Z,26.82
2017-09-17T09:31:05.925Z,27.05
2017-09-17T09:32:16.447Z,27.31
2017-09-17T09:33:26.610Z,27.34
2017-09-17T09:34:36.794Z,27.5
2017-09-17T09:35:47.514Z,27.6
2017-09-17T09:36:58.061Z,27.8
2017-09-17T09:38:08.568Z,27.86
2017-09-17T09:39:19.120Z,27.9
2017-09-17T09:40:29.826Z,28
2017-09-17T09:41:40.296Z,27.87
2017-09-17T09:42:51.005Z,27.63
2017-09-17T09:44:01.786Z,27.11
2017-09-17T09:45:12.262Z,26.93
2017-09-17T09:46:22.965Z,26.37
2017-09-17T09:47:33.434Z,26
2017-09-17T09:48:43.893Z,25.66
2017-09-17T09:49:53.893Z,25.24
2017-09-17T09:51:04.369Z,24.8
2017-09-17T09:52:14.881Z,24.54
2017-09-17T09:53:25.436Z,24.29
2017-09-17T09:54:35.617Z,24.09
2017-09-17T09:55:45.702Z,23.75
2017-09-17T09:56:56.286Z,23.68
2017-09-17T09:58:06.324Z,23.38
2017-09-17T09:59:16.814Z,23.31
2017-09-17T10:00:26.606Z,23.13
2017-09-17T10:01:37.457Z,23.28
2017-09-17T10:02:47.481Z,23.25
2017-09-17T10:03:58.046Z,23.16
2017-09-17T10:05:08.517Z,23.02
2017-09-17T10:06:18.997Z,22.67
2017-09-17T10:07:29.750Z,22.53
2017-09-17T10:08:39.909Z,22.52
2017-09-17T10:09:50.364Z,22.49
2017-09-17T10:11:00.833Z,22.57
2017-09-17T10:12:11.296Z,22.64
2017-09-17T10:13:22.029Z,22.75
2017-09-17T10:14:32.202Z,23.17
2017-09-17T10:15:42.365Z,23.42
2017-09-17T10:16:52.851Z,23.57
2017-09-17T10:18:03.330Z,23.68
2017-09-17T10:19:14.067Z,24.02
2017-09-17T10:20:24.658Z,24.27
2017-09-17T10:21:35.059Z,24.51
2017-09-17T10:22:45.739Z,24.7
2017-09-17T10:23:56.222Z,24.8
2017-09-17T10:25:06.917Z,25.12
2017-09-17T10:26:18.358Z,25.22
2017-09-17T10:27:28.841Z,25.21
2017-09-17T10:28:39.325Z,24.9
2017-09-17T10:29:49.839Z,24.47
2017-09-17T10:31:00.636Z,24.02
2017-09-17T10:32:11.090Z,23.7
2017-09-17T10:33:21.568Z,23.45
2017-09-17T10:34:32.068Z,23.55
2017-09-17T10:35:42.556Z,23.57
2017-09-17T10:36:53.335Z,23.57
2017-09-17T10:38:03.350Z,23.69
2017-09-17T10:39:13.848Z,24.05
2017-09-17T10:40:24.010Z,24.16
2017-09-17T10:41:34.553Z,24.17
2017-09-17T10:42:45.271Z,24.06
2017-09-17T10:43:55.494Z,23.82
2017-09-17T10:45:05.967Z,23.55
2017-09-17T10:46:16.467Z,23.2
2017-09-17T10:47:26.630Z,22.52
2017-09-17T10:48:37.331Z,22.02
2017-09-17T10:49:47.794Z,21.6
2017-09-17T10:50:58.270Z,21.2
2017-09-17T10:52:08.732Z,20.88
2017-09-17T10:53:19.260Z,20.41
2017-09-17T10:54:29.962Z,20.3
2017-09-17T10:55:40.411Z,20.07
2017-09-17T10:56:50.973Z,19.89
2017-09-17T10:58:01.520Z,19.7
2017-09-17T10:59:12.038Z,19.52
2017-09-17T11:00:22.484Z,19.4
2017-09-17T11:01:32.952Z,19.27
2017-09-17T11:02:43.432Z,19.23
2017-09-17T11:03:53.969Z,19.18
2017-09-17T11:05:04.441Z,19.15
2017-09-17T11:06:15.175Z,19.15
2017-09-17T11:07:25.813Z,19.24
2017-09-17T11:08:36.299Z,19.46
2017-09-17T11:09:46.773Z,19.71
2017-09-17T11:10:57.286Z,20.21
2017-09-17T11:12:08.157Z,20.66
2017-09-17T11:13:18.641Z,21
2017-09-17T11:14:29.413Z,21.25
2017-09-17T11:15:39.558Z,21.46
2017-09-17T11:16:49.744Z,21.45
2017-09-17T11:18:00.480Z,21.4
2017-09-17T11:19:10.945Z,21.25
2017-09-17T11:20:21.635Z,21.1
2017-09-17T11:21:32.169Z,20.9
2017-09-17T11:22:43.291Z,20.6
2017-09-17T11:23:54.074Z,20.42
2017-09-17T11:25:04.614Z,20.21
2017-09-17T11:26:15.126Z,20.12
2017-09-17T11:27:25.338Z,20.03
2017-09-17T11:28:35.370Z,20
2017-09-17T11:29:46.112Z,19.88
2017-09-17T11:30:56.594Z,19.7
2017-09-17T11:32:07.065Z,19.65
2017-09-17T11:33:17.575Z,19.52
2017-09-17T11:34:28.209Z,19.45
2017-09-17T11:35:38.939Z,19.73
2017-09-17T11:36:49.404Z,20.03
2017-09-17T11:37:59.886Z,20.46
2017-09-17T11:39:10.372Z,20.88
2017-09-17T11:40:20.873Z,21.34
2017-09-17T11:41:31.818Z,21.97
2017-09-17T11:42:42.520Z,22.38
2017-09-17T11:43:53.016Z,22.78
2017-09-17T11:45:03.582Z,23.11
2017-09-17T11:46:14.054Z,23.63
2017-09-17T11:47:24.804Z,23.83
2017-09-17T11:48:35.531Z,24.09
2017-09-17T11:49:45.983Z,24.28
2017-09-17T11:50:56.500Z,24.25
2017-09-17T11:52:06.988Z,24.5
2017-09-17T11:53:17.487Z,24.58
2017-09-17T11:54:27.959Z,24.63
2017-09-17T11:55:38.418Z,24.76
2017-09-17T11:56:48.954Z,24.99
2017-09-17T11:57:59.466Z,25.18
2017-09-17T11:59:10.199Z,25.18
2017-09-17T12:00:20.298Z,25.22
2017-09-17T12:01:30.459Z,25.19
2017-09-17T12:02:40.600Z,25.28
2017-09-17T12:03:51.134Z,25.31
2017-09-17T12:05:01.850Z,25.18
2017-09-17T12:06:12.009Z,25.09
2017-09-17T12:07:22.507Z,24.65
2017-09-17T12:08:33.000Z,24.38
2017-09-17T12:09:43.500Z,24.16
2017-09-17T12:10:54.226Z,24.05
2017-09-17T12:12:04.846Z,23.75
2017-09-17T12:13:15.303Z,23.51
2017-09-17T12:14:25.884Z,23.39
2017-09-17T12:15:36.411Z,23.08
2017-09-17T12:16:47.279Z,22.76
2017-09-17T12:17:57.352Z,22.43
2017-09-17T12:19:07.906Z,22.11
2017-09-17T12:20:18.409Z,21.6
2017-09-17T12:21:28.644Z,21.4
2017-09-17T12:22:39.618Z,21.12
2017-09-17T12:23:50.222Z,20.98
2017-09-17T12:25:00.683Z,20.86
2017-09-17T12:26:11.180Z,20.66
2017-09-17T12:27:21.697Z,20.53
2017-09-17T12:28:32.421Z,20.36
2017-09-17T12:29:42.979Z,20.3
2017-09-17T12:30:53.465Z,20.24
2017-09-17T12:32:03.941Z,20.23
2017-09-17T12:33:14.445Z,20
2017-09-17T12:34:25.149Z,19.98
2017-09-17T12:35:35.696Z,20.05
2017-09-17T12:36:45.850Z,20.31
2017-09-17T12:37:56.303Z,20.45
2017-09-17T12:39:06.808Z,20.76
2017-09-17T12:40:17.545Z,20.9
2017-09-17T12:41:28.036Z,21.12
2017-09-17T12:42:38.579Z,21.33
2017-09-17T12:43:49.051Z,21.69
2017-09-17T12:44:59.630Z,21.91
2017-09-17T12:46:10.372Z,22.02
2017-09-17T12:47:20.857Z,22.08
2017-09-17T12:48:31.424Z,22.12
2017-09-17T12:49:41.896Z,22.08
2017-09-17T12:50:52.437Z,21.97
2017-09-17T12:52:03.179Z,21.66
2017-09-17T12:53:13.735Z,21.35
2017-09-17T12:54:24.207Z,21.18
2017-09-17T12:55:34.714Z,21
2017-09-17T12:56:45.254Z,20.68
2017-09-17T12:57:55.990Z,20.42
2017-09-17T12:59:06.513Z,20.19
2017-09-17T13:00:16.999Z,20
2017-09-17T13:01:27.821Z,19.82
2017-09-17T13:02:38.312Z,19.55
2017-09-17T13:03:49.078Z,19.48
2017-09-17T13:04:59.670Z,19.27
2017-09-17T13:06:09.795Z,19.1
2017-09-17T13:07:20.311Z,19.15
2017-09-17T13:08:30.764Z,18.94
2017-09-17T13:09:41.562Z,18.95
2017-09-17T13:10:52.133Z,18.88
2017-09-17T13:12:02.324Z,18.84
2017-09-17T13:13:12.802Z,18.82
2017-09-17T13:14:23.443Z,18.79
2017-09-17T13:15:33.960Z,18.8
2017-09-17T13:16:44.466Z,18.69
2017-09-17T13:17:55.231Z,18.75
2017-09-17T13:19:05.773Z,18.72
2017-09-17T13:20:16.337Z,18.63
2017-09-17T13:21:27.114Z,18.59
2017-09-17T13:22:37.735Z,18.49
2017-09-17T13:23:48.281Z,18.47
2017-09-17T13:24:58.820Z,18.52
2017-09-17T13:26:09.360Z,18.52
2017-09-17T13:27:19.870Z,18.56
2017-09-17T13:28:30.366Z,18.41
2017-09-17T13:29:40.862Z,18.42
2017-09-17T13:30:51.136Z,18.4
2017-09-17T13:32:01.741Z,18.25
2017-09-17T13:33:12.477Z,18.12
2017-09-17T13:34:23.165Z,18.04
2017-09-17T13:35:33.351Z,18.05
2017-09-17T13:36:44.015Z,17.92
2017-09-17T13:37:54.532Z,17.68
2017-09-17T13:39:05.320Z,17.64
2017-09-17T13:40:15.868Z,17.58
2017-09-17T13:41:26.409Z,17.52
2017-09-17T13:42:36.956Z,17.52
2017-09-17T13:43:47.558Z,17.46
2017-09-17T13:44:58.344Z,17.45
2017-09-17T13:46:08.918Z,17.49
2017-09-17T13:47:19.494Z,17.55
2017-09-17T13:48:30.127Z,17.55
2017-09-17T13:49:40.740Z,17.57
2017-09-17T13:50:51.201Z,17.5
2017-09-17T13:52:01.744Z,17.47
2017-09-17T13:53:12.387Z,17.39
2017-09-17T13:54:22.902Z,17.24
2017-09-17T13:55:33.617Z,17.16
2017-09-17T13:56:44.089Z,17.21
2017-09-17T13:57:54.639Z,17.27
2017-09-17T13:59:05.710Z,17.17
2017-09-17T14:00:16.259Z,17.24
2017-09-17T14:01:26.826Z,17.32
2017-09-17T14:02:37.917Z,17.31
2017-09-17T14:03:48.417Z,17.24
2017-09-17T14:04:58.912Z,17.36
2017-09-17T14:06:09.667Z,17.39
2017-09-17T14:07:20.339Z,17.4
2017-09-17T14:08:31.198Z,17.58
2017-09-17T14:09:41.409Z,17.52
2017-09-17T14:10:52.060Z,17.6
2017-09-17T14:12:02.677Z,17.52
2017-09-17T14:13:12.928Z,17.61
2017-09-17T14:14:23.652Z,17.58
2017-09-17T14:15:34.200Z,17.61
2017-09-17T14:16:44.731Z,17.61
2017-09-17T14:17:54.929Z,17.52
2017-09-17T14:19:05.443Z,17.43
2017-09-17T14:20:16.288Z,17.31
2017-09-17T14:21:26.887Z,17.27
2017-09-17T14:22:37.365Z,17.24
2017-09-17T14:23:47.539Z,17.16
2017-09-17T14:24:58.074Z,17.04
2017-09-17T14:26:08.786Z,17.12
2017-09-17T14:27:19.344Z,17.09
2017-09-17T14:28:29.894Z,17.06
2017-09-17T14:29:40.040Z,17.06
2017-09-17T14:30:50.227Z,17.02
2017-09-17T14:32:00.488Z,17.05
2017-09-17T14:33:10.964Z,17.12
2017-09-17T14:34:21.465Z,17.06
2017-09-17T14:35:31.964Z,17.06
2017-09-17T14:36:42.436Z,17.06
2017-09-17T14:37:53.167Z,17.04
2017-09-17T14:39:03.673Z,16.99
2017-09-17T14:40:13.377Z,17.04
2017-09-17T14:41:23.856Z,16.94
2017-09-17T14:42:34.329Z,16.9
2017-09-17T14:43:45.044Z,16.9
2017-09-17T14:44:55.718Z,16.87
2017-09-17T14:46:06.365Z,16.82
2017-09-17T14:47:16.945Z,16.79
2017-09-17T14:48:27.491Z,16.71
2017-09-17T14:49:38.406Z,16.76
2017-09-17T14:50:49.030Z,16.68
2017-09-17T14:51:59.548Z,16.65
2017-09-17T14:53:10.151Z,16.66
2017-09-17T14:54:20.869Z,16.64
2017-09-17T14:55:31.372Z,16.68
2017-09-17T14:56:41.895Z,16.51
2017-09-17T14:57:52.700Z,16.62
2017-09-17T14:59:03.469Z,16.57
2017-09-17T15:00:14.008Z,16.53
2017-09-17T15:01:24.536Z,16.56
2017-09-17T15:02:35.179Z,16.59
2017-09-17T15:03:45.985Z,16.54
2017-09-17T15:04:56.553Z,16.51
2017-09-17T15:06:06.807Z,16.64
2017-09-17T15:07:17.417Z,16.62
2017-09-17T15:08:28.378Z,16.68
2017-09-17T15:09:39.172Z,16.66
2017-09-17T15:10:48.900Z,16.57
2017-09-17T15:11:59.520Z,16.65
2017-09-17T15:13:10.276Z,16.65
2017-09-17T15:14:20.595Z,16.65
2017-09-17T15:15:30.999Z,16.57
2017-09-17T15:16:41.586Z,16.54
2017-09-17T15:17:52.132Z,16.56
2017-09-17T15:19:02.744Z,16.49
2017-09-17T15:20:14.396Z,16.46
2017-09-17T15:21:25.169Z,16.49
2017-09-17T15:22:36.675Z,16.47
2017-09-17T15:23:47.347Z,16.46
2017-09-17T15:24:57.957Z,16.44
2017-09-17T15:26:08.560Z,16.43